Time;durP1;ratioP1;P1;durP2;ratioP2;P2;SDS_P1;SDS_P2;PMS_P1;PMS_P2;Temp;Humidity;BMP_temperature;BMP_pressure;BME280_temperature;BME280_humidity;BME280_pressure;Samples;Min_cycle;Max_cycle;Signal;HPM_P1;HPM_P2
2021/07/30 00:01:54;;;;;;;4.60;4.10;;;17.90;99.90;17.20;96587.00;;;;5048102;28;20235;-68
2021/07/30 00:04:43;;;;;;;8.10;4.57;;;17.90;99.90;17.00;96586.00;;;;5046448;28;20246;-69
2021/07/30 00:07:33;;;;;;;6.40;4.97;;;17.70;99.90;17.10;96588.00;;;;5047765;28;20582;-69
2021/07/30 00:10:22;;;;;;;12.57;6.50;;;17.60;99.90;17.00;96598.00;;;;5047078;28;20196;-70
2021/07/30 00:13:11;;;;;;;5.57;5.07;;;16.60;99.90;17.10;96588.00;;;;5027478;28;20205;-70
2021/07/30 00:15:59;;;;;;;8.00;5.43;;;17.50;99.90;17.10;96589.00;;;;5028584;28;20553;-69
2021/07/30 00:18:48;;;;;;;8.80;5.30;;;17.50;99.90;17.20;96587.00;;;;5046912;28;20643;-70
2021/07/30 00:21:37;;;;;;;5.73;5.13;;;17.60;99.90;17.20;96593.00;;;;5039867;28;20224;-70
2021/07/30 00:24:27;;;;;;;6.50;5.33;;;17.60;99.90;17.20;96593.00;;;;5046626;28;20415;-70
2021/07/30 00:27:16;;;;;;;5.33;4.83;;;17.60;99.90;16.80;96595.00;;;;5047388;28;20299;-69
2021/07/30 00:30:06;;;;;;;5.23;4.67;;;17.50;99.90;16.70;96587.00;;;;5047016;28;20204;-70
2021/07/30 00:32:55;;;;;;;8.13;5.80;;;17.40;99.90;17.00;96580.00;;;;5035666;28;20200;-70
2021/07/30 00:35:44;;;;;;;7.67;5.10;;;17.30;99.90;17.10;96584.00;;;;5042206;28;20208;-70
2021/07/30 00:38:33;;;;;;;5.50;4.93;;;17.30;99.90;17.10;96583.00;;;;5026787;28;20871;-70
2021/07/30 00:41:23;;;;;;;6.03;5.13;;;17.40;99.90;16.90;96577.00;;;;5038732;28;20224;-70
2021/07/30 00:44:12;;;;;;;9.10;5.50;;;17.40;99.90;16.90;96571.00;;;;5046392;28;20211;-70
2021/07/30 00:47:01;;;;;;;6.03;4.73;;;17.30;99.90;17.00;96576.00;;;;5046780;28;20243;-70
2021/07/30 00:49:50;;;;;;;7.13;5.33;;;17.30;99.90;17.10;96578.00;;;;5031198;28;20216;-70
2021/07/30 00:52:39;;;;;;;5.37;4.83;;;17.30;99.90;17.00;96573.00;;;;5038747;28;20204;-70
2021/07/30 00:55:28;;;;;;;6.27;4.43;;;17.40;99.90;16.90;96578.00;;;;5046190;28;20207;-69
2021/07/30 00:58:18;;;;;;;6.73;4.80;;;17.30;99.90;16.90;96572.00;;;;5047562;28;20581;-71
2021/07/30 01:01:08;;;;;;;5.30;4.80;;;17.30;99.90;16.80;96560.00;;;;5046891;28;20216;-71
2021/07/30 01:03:57;;;;;;;5.63;4.97;;;17.20;99.90;16.70;96568.00;;;;5034818;28;20734;-71
2021/07/30 01:06:46;;;;;;;6.17;5.17;;;17.20;99.90;16.50;96555.00;;;;5035251;28;20204;-69
2021/07/30 01:09:35;;;;;;;6.47;5.50;;;17.20;99.90;16.40;96562.00;;;;5046948;28;20204;-72
2021/07/30 01:12:24;;;;;;;5.90;5.30;;;17.10;99.90;16.60;96560.00;;;;5046648;28;20215;-71
2021/07/30 01:15:14;;;;;;;9.13;5.40;;;17.00;99.90;16.80;96565.00;;;;5045759;28;20695;-70
2021/07/30 01:18:03;;;;;;;6.73;4.80;;;17.00;99.90;16.90;96561.00;;;;5036177;28;20216;-71
2021/07/30 01:21:07;;;;;;;7.43;4.90;;;17.10;99.90;16.80;96560.00;;;;5029223;28;20549;-71
2021/07/30 01:23:59;;;;;;;7.50;5.27;;;17.20;99.90;16.60;96560.00;;;;5026373;28;20213;-70
2021/07/30 01:26:48;;;;;;;8.00;4.97;;;17.10;99.90;16.30;96558.00;;;;5040289;28;20212;-71
2021/07/30 01:29:37;;;;;;;6.30;5.67;;;17.00;99.90;16.20;96554.00;;;;5046494;28;20204;-70
2021/07/30 01:32:25;;;;;;;6.63;5.10;;;16.90;99.90;16.30;96554.00;;;;5046960;28;20215;-71
2021/07/30 01:35:14;;;;;;;8.93;5.07;;;16.90;99.90;16.50;96544.00;;;;5033635;28;20209;-70
2021/07/30 01:38:03;;;;;;;5.90;5.30;;;16.80;99.90;16.30;96547.00;;;;5046509;28;20223;-71
2021/07/30 01:40:53;;;;;;;8.23;4.83;;;16.80;99.90;16.20;96557.00;;;;5047031;28;20201;-71
2021/07/30 01:43:44;;;;;;;5.43;4.77;;;16.80;99.90;16.10;96546.00;;;;5046055;28;20220;-71
2021/07/30 01:46:32;;;;;;;8.33;4.97;;;16.70;99.90;16.00;96548.00;;;;5049354;28;20223;-71
2021/07/30 01:49:21;;;;;;;6.20;5.40;;;16.60;99.90;16.00;96560.00;;;;5050338;28;20201;-71
2021/07/30 01:52:10;;;;;;;5.80;5.17;;;16.60;99.90;16.00;96550.00;;;;5039964;28;20204;-71
2021/07/30 01:54:59;;;;;;;7.33;5.37;;;16.50;99.90;15.90;96546.00;;;;5049027;28;20211;-71
2021/07/30 01:57:49;;;;;;;7.47;5.90;;;16.50;99.90;15.90;96540.00;;;;5049612;28;20232;-71
2021/07/30 02:00:38;;;;;;;9.30;5.53;;;16.40;99.90;16.00;96559.00;;;;5049367;28;20212;-71
2021/07/30 02:03:27;;;;;;;10.30;5.83;;;16.40;99.90;16.10;96550.00;;;;5042027;28;20589;-71
2021/07/30 02:06:16;;;;;;;7.33;5.37;;;16.40;99.90;16.30;96559.00;;;;5033470;28;20204;-71
2021/07/30 02:09:05;;;;;;;8.47;5.30;;;16.50;99.90;16.50;96559.00;;;;5050092;28;20211;-71
2021/07/30 02:11:54;;;;;;;8.43;5.73;;;16.60;99.90;16.60;96565.00;;;;5030855;28;20201;-71
2021/07/30 02:14:43;;;;;;;7.10;5.97;;;16.70;99.90;16.70;96560.00;;;;5029889;28;20209;-71
2021/07/30 02:17:32;;;;;;;8.00;5.53;;;16.80;99.90;16.80;96551.00;;;;5043207;28;20243;-72
2021/07/30 02:20:21;;;;;;;5.97;5.40;;;16.90;99.90;16.80;96557.00;;;;5041702;28;20583;-71
2021/07/30 02:23:09;;;;;;;8.37;5.40;;;17.00;99.90;16.80;96550.00;;;;5049830;28;20235;-71
2021/07/30 02:25:58;;;;;;;6.57;5.43;;;17.00;99.90;16.70;96548.00;;;;5049610;28;20864;-71
2021/07/30 02:28:47;;;;;;;6.17;5.57;;;17.00;99.90;16.40;96537.00;;;;5049660;28;20596;-71
2021/07/30 02:31:37;;;;;;;7.83;5.70;;;17.00;99.90;16.40;96538.00;;;;5049694;28;20200;-71
2021/07/30 02:34:26;;;;;;;8.37;5.47;;;16.90;99.90;16.40;96543.00;;;;5049600;28;20211;-71
2021/07/30 02:37:15;;;;;;;6.73;5.17;;;16.90;99.90;16.30;96553.00;;;;5049050;28;20232;-72
2021/07/30 02:40:06;;;;;;;8.30;6.07;;;16.80;99.90;16.10;96538.00;;;;5049733;28;20219;-71
2021/07/30 02:42:54;;;;;;;7.03;5.07;;;16.80;99.90;16.10;96536.00;;;;5049370;28;20618;-71
2021/07/30 02:45:43;;;;;;;6.53;5.40;;;16.70;99.90;16.00;96533.00;;;;5037835;28;20215;-72
2021/07/30 02:48:33;;;;;;;7.77;5.60;;;16.60;99.90;16.10;96528.00;;;;5035710;28;20228;-70
2021/07/30 02:51:22;;;;;;;5.80;5.20;;;16.60;99.90;16.00;96537.00;;;;5049375;28;20680;-71
2021/07/30 02:54:11;;;;;;;7.13;6.43;;;16.50;99.90;16.00;96527.00;;;;5048594;28;20664;-71
2021/07/30 02:57:00;;;;;;;8.77;5.80;;;16.50;99.90;16.00;96527.00;;;;5035990;28;20458;-71
2021/07/30 02:59:48;;;;;;;7.00;5.50;;;16.50;99.90;16.20;96528.00;;;;5048676;28;20220;-71
2021/07/30 03:02:37;;;;;;;6.17;5.47;;;16.50;99.90;16.20;96532.00;;;;5049024;28;20240;-70
2021/07/30 03:05:28;;;;;;;6.40;5.53;;;16.50;99.90;16.40;96537.00;;;;5038277;28;20201;-71
2021/07/30 03:08:17;;;;;;;6.33;5.37;;;16.60;99.90;16.40;96529.00;;;;5035939;28;20225;-71
2021/07/30 03:11:06;;;;;;;5.17;4.67;;;16.70;99.90;16.40;96541.00;;;;5049379;28;20216;-70
2021/07/30 03:13:54;;;;;;;8.47;5.87;;;16.70;99.90;16.10;96533.00;;;;5047905;28;20219;-70
2021/07/30 03:16:43;;;;;;;8.20;5.57;;;16.70;99.90;16.00;96531.00;;;;5037324;28;20208;-70
2021/07/30 03:19:32;;;;;;;6.90;5.40;;;16.60;99.90;15.90;96535.00;;;;5042522;28;20240;-70
2021/07/30 03:22:22;;;;;;;9.67;5.70;;;16.50;99.90;15.90;96537.00;;;;5030717;28;20209;-70
2021/07/30 03:25:12;;;;;;;5.70;5.20;;;16.40;99.90;15.90;96533.00;;;;5036392;28;20206;-70
2021/07/30 03:28:01;;;;;;;7.37;5.40;;;16.40;99.90;15.90;96541.00;;;;5036977;28;20691;-69
2021/07/30 03:30:50;;;;;;;6.87;5.23;;;16.40;99.90;15.90;96537.00;;;;5047912;28;20196;-71
2021/07/30 03:33:39;;;;;;;5.83;5.20;;;16.40;99.90;15.80;96537.00;;;;5046698;28;20223;-71
2021/07/30 03:36:28;;;;;;;7.67;6.00;;;16.30;99.90;15.80;96537.00;;;;5040453;28;20273;-69
2021/07/30 03:39:18;;;;;;;7.50;6.23;;;16.30;99.90;15.70;96527.00;;;;5048597;28;20208;-69
2021/07/30 03:42:07;;;;;;;8.00;6.23;;;16.20;99.90;15.60;96539.00;;;;5049042;28;20204;-70
2021/07/30 03:44:56;;;;;;;7.63;5.83;;;16.20;99.90;15.50;96531.00;;;;5047049;28;20208;-70
2021/07/30 03:47:45;;;;;;;9.00;6.00;;;16.10;99.90;15.50;96532.00;;;;5040756;28;20582;-70
2021/07/30 03:50:33;;;;;;;10.23;6.00;;;16.00;99.90;15.60;96535.00;;;;5036519;28;20662;-70
2021/07/30 03:53:22;;;;;;;8.70;6.07;;;16.00;99.90;15.60;96539.00;;;;5041552;28;20211;-70
2021/07/30 03:56:17;;;;;;;6.80;5.27;;;16.00;99.90;15.70;96536.00;;;;5033548;28;20664;-70
2021/07/30 03:59:05;;;;;;;11.57;6.63;;;16.10;99.90;15.70;96542.00;;;;5035474;28;20289;-69
2021/07/30 04:01:54;;;;;;;7.67;6.67;;;16.10;99.90;15.80;96549.00;;;;5036455;28;20698;-70
2021/07/30 04:04:43;;;;;;;12.50;7.27;;;16.10;99.90;15.90;96544.00;;;;5047215;28;20317;-70
2021/07/30 04:07:32;;;;;;;8.87;6.13;;;16.20;99.90;15.80;96545.00;;;;5047000;28;20220;-70
2021/07/30 04:10:21;;;;;;;7.07;6.30;;;16.20;99.90;15.70;96549.00;;;;5048011;28;20205;-70
2021/07/30 04:13:11;;;;;;;6.30;5.70;;;16.20;99.90;15.50;96550.00;;;;5046740;28;20208;-70
2021/07/30 04:16:02;;;;;;;10.63;5.83;;;16.10;99.90;15.70;96546.00;;;;5046589;28;20213;-70
2021/07/30 04:18:51;;;;;;;7.83;6.13;;;16.10;99.90;15.70;96551.00;;;;5033210;28;20602;-70
2021/07/30 04:21:40;;;;;;;11.27;6.47;;;16.10;99.90;15.80;96554.00;;;;5027795;28;20210;-71
2021/07/30 04:24:28;;;;;;;8.57;5.30;;;16.10;99.90;16.00;96554.00;;;;5033896;28;20610;-71
2021/07/30 04:27:17;;;;;;;9.13;8.23;;;16.20;99.90;16.10;96556.00;;;;5044037;28;20228;-70
2021/07/30 04:30:08;;;;;;;6.90;5.90;;;16.30;99.90;16.00;96552.00;;;;5039357;28;20710;-71
2021/07/30 04:32:57;;;;;;;8.17;6.47;;;16.30;99.90;16.10;96560.00;;;;5043549;28;20283;-71
2021/07/30 04:35:46;;;;;;;7.17;6.47;;;16.40;99.90;16.00;96558.00;;;;5045318;28;20613;-69
2021/07/30 04:38:35;;;;;;;7.13;5.70;;;16.40;99.90;16.20;96548.00;;;;5040531;28;20734;-70
2021/07/30 04:41:23;;;;;;;6.23;5.63;;;16.40;99.90;16.40;96549.00;;;;5045956;28;20204;-70
2021/07/30 04:44:12;;;;;;;6.90;5.37;;;16.50;99.90;16.40;96549.00;;;;5033046;28;20882;-70
2021/07/30 04:47:03;;;;;;;5.90;5.30;;;16.60;99.90;16.60;96551.00;;;;5045771;28;20247;-70
2021/07/30 04:49:52;;;;;;;6.47;5.33;;;16.70;99.90;16.80;96550.00;;;;5040710;28;20223;-70
2021/07/30 04:52:41;;;;;;;6.73;6.00;;;16.80;99.90;16.80;96529.00;;;;5039662;28;20345;-70
2021/07/30 04:55:29;;;;;;;8.97;6.63;;;16.90;99.90;16.90;96536.00;;;;5043868;28;20212;-70
2021/07/30 04:58:18;;;;;;;8.30;6.53;;;17.00;99.90;16.90;96532.00;;;;5046323;28;20695;-71
2021/07/30 05:01:07;;;;;;;7.40;6.07;;;17.10;99.90;16.90;96541.00;;;;5046375;28;20196;-71
2021/07/30 05:03:57;;;;;;;8.97;7.70;;;17.20;99.90;16.70;96536.00;;;;5045956;28;20228;-71
2021/07/30 05:06:46;;;;;;;5.93;5.10;;;17.20;99.90;16.90;96534.00;;;;5042195;28;20205;-70
2021/07/30 05:09:35;;;;;;;7.17;5.70;;;17.30;99.90;17.10;96533.00;;;;5043452;28;20204;-71
2021/07/30 05:12:24;;;;;;;7.43;6.60;;;17.30;99.90;17.30;96539.00;;;;5040033;28;20211;-70
2021/07/30 05:15:14;;;;;;;7.70;5.47;;;17.40;99.90;17.30;96542.00;;;;5034256;28;20205;-72
2021/07/30 05:18:03;;;;;;;11.37;5.43;;;17.50;99.90;17.40;96539.00;;;;5032836;28;20221;-70
2021/07/30 05:20:53;;;;;;;6.77;5.77;;;17.60;99.90;17.60;96538.00;;;;5046266;28;20209;-72
2021/07/30 05:23:43;;;;;;;7.13;5.40;;;17.70;99.90;17.70;96536.00;;;;5046619;28;20232;-71
2021/07/30 05:26:32;;;;;;;8.10;6.37;;;17.80;99.90;17.80;96532.00;;;;5040704;28;20208;-71
2021/07/30 05:29:21;;;;;;;6.60;5.90;;;17.90;99.90;18.00;96530.00;;;;5049954;28;20211;-70
2021/07/30 05:32:11;;;;;;;8.87;6.63;;;18.00;99.90;18.30;96534.00;;;;5050230;28;20738;-71
2021/07/30 05:35:00;;;;;;;7.50;6.57;;;18.20;99.90;18.40;96521.00;;;;5049806;28;20208;-72
2021/07/30 05:37:50;;;;;;;9.50;5.93;;;18.40;99.90;18.60;96527.00;;;;5050318;28;20220;-71
2021/07/30 05:40:43;;;;;;;8.73;5.67;;;18.60;99.90;18.70;96533.00;;;;5049080;28;20203;-72
2021/07/30 05:43:33;;;;;;;7.93;6.03;;;18.70;99.90;18.80;96539.00;;;;5048023;28;20206;-70
2021/07/30 05:46:22;;;;;;;6.97;6.13;;;18.80;99.90;18.80;96550.00;;;;5049227;28;20246;-71
2021/07/30 05:49:11;;;;;;;8.50;6.00;;;18.90;99.90;18.70;96543.00;;;;5048948;28;20257;-73
2021/07/30 05:51:59;;;;;;;16.50;7.20;;;19.00;99.90;19.00;96528.00;;;;5049907;28;20205;-71
2021/07/30 05:54:49;;;;;;;8.73;5.87;;;19.10;99.90;19.20;96535.00;;;;5048955;28;20204;-72
2021/07/30 05:57:38;;;;;;;6.80;5.97;;;19.20;99.90;19.30;96535.00;;;;5048991;28;20714;-71
2021/07/30 06:00:27;;;;;;;14.20;6.20;;;19.30;99.90;19.60;96529.00;;;;5048728;28;20208;-71
2021/07/30 06:03:16;;;;;;;7.53;6.07;;;19.50;99.90;19.90;96533.00;;;;5048499;28;20293;-72
2021/07/30 06:06:05;;;;;;;9.77;6.17;;;19.60;99.90;19.90;96535.00;;;;5049003;28;20279;-72
2021/07/30 06:08:54;;;;;;;6.90;6.20;;;19.80;99.90;20.20;96529.00;;;;5048271;28;20225;-71
2021/07/30 06:11:44;;;;;;;7.57;6.23;;;20.00;99.90;20.40;96519.00;;;;5043582;28;20205;-70
2021/07/30 06:14:32;;;;;;;9.70;7.63;;;20.20;99.90;20.60;96529.00;;;;5042505;28;20201;-70
2021/07/30 06:17:23;;;;;;;7.47;6.33;;;20.40;99.90;20.60;96521.00;;;;5045979;28;20258;-71
2021/07/30 06:20:14;;;;;;;11.20;6.90;;;20.60;99.90;20.90;96521.00;;;;5038448;28;20209;-70
2021/07/30 06:23:03;;;;;;;6.97;5.13;;;20.70;99.90;21.10;96523.00;;;;5048406;28;20216;-69
2021/07/30 06:25:53;;;;;;;9.70;5.97;;;20.90;99.90;21.30;96532.00;;;;5048200;28;20220;-69
2021/07/30 06:28:43;;;;;;;8.10;6.27;;;21.10;99.90;21.50;96517.00;;;;5047939;28;20224;-70
2021/07/30 06:31:32;;;;;;;9.23;5.57;;;21.30;99.90;21.70;96521.00;;;;5047697;28;20212;-70
2021/07/30 06:34:21;;;;;;;6.67;5.47;;;21.50;99.90;22.00;96522.00;;;;5047690;28;20223;-70
2021/07/30 06:37:10;;;;;;;8.00;5.63;;;21.70;99.90;22.20;96522.00;;;;5048207;28;20251;-66
2021/07/30 06:39:58;;;;;;;11.73;6.67;;;21.90;99.90;22.50;96524.00;;;;5048145;28;20575;-66
2021/07/30 06:42:47;;;;;;;8.80;6.07;;;22.10;99.90;22.50;96521.00;;;;5047781;28;20197;-67
2021/07/30 06:45:37;;;;;;;8.23;5.83;;;22.30;99.90;22.60;96527.00;;;;5036692;28;20225;-68
2021/07/30 06:48:26;;;;;;;11.37;5.97;;;22.50;99.90;22.60;96523.00;;;;5048561;28;20224;-71
2021/07/30 06:51:15;;;;;;;9.63;5.90;;;22.60;99.90;22.90;96525.00;;;;5047504;28;20668;-68
2021/07/30 06:54:04;;;;;;;10.30;6.57;;;22.70;99.90;23.10;96525.00;;;;5047215;28;20193;-69
2021/07/30 06:56:53;;;;;;;13.73;5.80;;;22.90;99.90;23.30;96523.00;;;;5033796;28;20600;-69
2021/07/30 06:59:42;;;;;;;7.47;5.67;;;23.10;99.90;23.50;96526.00;;;;5045107;28;20212;-70
2021/07/30 07:02:32;;;;;;;7.40;5.50;;;23.20;99.90;23.50;96518.00;;;;5033385;28;20210;-68
2021/07/30 07:05:21;;;;;;;9.57;6.73;;;23.40;99.90;23.70;96517.00;;;;5036824;28;20224;-69
2021/07/30 07:08:10;;;;;;;12.90;5.87;;;23.20;99.90;23.90;96518.00;;;;5046813;28;20239;-69
2021/07/30 07:10:58;;;;;;;9.97;6.80;;;23.60;99.90;24.10;96520.00;;;;5048115;28;20209;-68
2021/07/30 07:13:47;;;;;;;6.70;5.57;;;23.80;99.90;24.30;96499.00;;;;5047756;28;20205;-68
2021/07/30 07:16:36;;;;;;;6.63;5.17;;;24.00;99.90;24.40;96498.00;;;;5047690;28;20591;-68
2021/07/30 07:19:26;;;;;;;9.17;4.73;;;24.10;99.90;24.60;96506.00;;;;5046399;28;20208;-68
2021/07/30 07:22:16;;;;;;;7.67;4.70;;;24.30;99.90;24.80;96504.00;;;;5045333;28;20739;-69
2021/07/30 07:25:06;;;;;;;7.40;6.00;;;24.50;99.90;24.80;96498.00;;;;5043822;28;20580;-68
2021/07/30 07:27:55;;;;;;;5.97;5.23;;;24.60;99.90;25.10;96497.00;;;;5033384;28;20225;-68
2021/07/30 07:30:44;;;;;;;8.77;5.90;;;24.80;99.90;25.30;96493.00;;;;5047707;28;20214;-69
2021/07/30 07:33:33;;;;;;;7.10;5.50;;;24.90;99.90;25.40;96498.00;;;;5045393;28;20208;-69
2021/07/30 07:36:23;;;;;;;6.80;5.50;;;25.10;99.90;25.50;96499.00;;;;5045584;28;20816;-68
2021/07/30 07:39:12;;;;;;;7.07;5.07;;;25.20;99.90;25.70;96493.00;;;;5033175;28;20201;-68
2021/07/30 07:42:01;;;;;;;13.27;5.90;;;25.40;99.90;25.90;96496.00;;;;5047891;28;20218;-68
2021/07/30 07:44:51;;;;;;;6.93;5.03;;;25.50;99.90;26.10;96480.00;;;;5044833;28;20227;-69
2021/07/30 07:47:40;;;;;;;5.53;4.53;;;25.70;99.90;26.20;96480.00;;;;5046430;28;20223;-68
2021/07/30 07:50:29;;;;;;;4.73;4.13;;;25.90;99.90;26.30;96480.00;;;;5035656;28;20201;-69
2021/07/30 07:53:20;;;;;;;11.73;5.43;;;26.00;99.90;26.50;96475.00;;;;5047153;28;20209;-67
2021/07/30 07:56:09;;;;;;;7.30;5.20;;;26.10;99.90;26.60;96473.00;;;;5041307;28;20695;-67
2021/07/30 07:58:59;;;;;;;7.23;5.17;;;26.30;99.90;26.70;96478.00;;;;5038424;28;20218;-68
2021/07/30 08:01:47;;;;;;;12.53;5.47;;;26.40;99.90;26.90;96470.00;;;;5039757;28;20218;-67
2021/07/30 08:04:36;;;;;;;7.73;5.37;;;26.50;99.90;27.00;96472.00;;;;5042022;28;20202;-69
2021/07/30 08:07:25;;;;;;;7.47;5.20;;;26.70;99.90;27.30;96472.00;;;;5047002;28;20573;-68
2021/07/30 08:10:16;;;;;;;11.30;5.37;;;26.90;99.90;27.40;96466.00;;;;5047260;28;20213;-68
2021/07/30 08:13:05;;;;;;;7.67;5.40;;;27.00;99.90;27.40;96472.00;;;;5035816;28;20215;-68
2021/07/30 08:15:53;;;;;;;6.63;4.90;;;27.20;99.90;27.20;96472.00;;;;5043115;28;20208;-68
2021/07/30 08:18:42;;;;;;;7.37;4.77;;;27.30;99.90;27.30;96479.00;;;;5041719;28;20219;-69
2021/07/30 08:21:32;;;;;;;6.73;4.30;;;27.30;99.90;27.50;96479.00;;;;5044521;28;20207;-69
2021/07/30 08:24:20;;;;;;;9.13;4.63;;;27.40;99.90;27.90;96472.00;;;;5030149;28;20207;-68
2021/07/30 08:27:11;;;;;;;5.60;5.10;;;27.50;99.90;27.70;96478.00;;;;5046550;28;20706;-69
2021/07/30 08:29:59;;;;;;;4.17;3.60;;;27.60;99.90;27.90;96474.00;;;;5039763;28;20203;-68
2021/07/30 08:32:48;;;;;;;5.27;4.77;;;27.70;99.90;28.10;96468.00;;;;5032254;28;20233;-69
2021/07/30 08:35:37;;;;;;;4.87;4.47;;;27.90;97.60;28.20;96462.00;;;;5031901;28;20219;-69
2021/07/30 08:38:26;;;;;;;4.97;4.47;;;28.00;97.10;28.30;96466.00;;;;5043811;28;20220;-68
2021/07/30 08:41:22;;;;;;;5.27;4.77;;;28.10;95.80;28.50;96465.00;;;;5038812;28;20200;-69
2021/07/30 08:44:14;;;;;;;5.20;4.53;;;28.20;95.00;28.60;96461.00;;;;5041825;28;20403;-69
2021/07/30 08:47:04;;;;;;;5.40;4.40;;;28.30;94.20;28.60;96460.00;;;;5044300;28;20229;-68
2021/07/30 08:49:53;;;;;;;7.30;4.47;;;28.40;93.40;28.80;96455.00;;;;5031946;28;20331;-68
2021/07/30 08:52:44;;;;;;;4.60;4.20;;;28.50;93.00;28.70;96459.00;;;;5034121;28;20202;-69
2021/07/30 08:55:33;;;;;;;6.67;5.17;;;28.60;91.60;29.10;96461.00;;;;5038030;28;20589;-68
2021/07/30 08:58:22;;;;;;;6.13;5.47;;;28.70;93.10;29.20;96460.00;;;;5044399;28;20475;-68
2021/07/30 09:01:14;;;;;;;6.40;4.57;;;28.90;93.20;29.40;96458.00;;;;5041813;28;20201;-68
2021/07/30 09:04:04;;;;;;;6.07;4.73;;;29.00;93.00;29.20;96467.00;;;;5029721;28;20222;-69
2021/07/30 09:06:57;;;;;;;6.70;4.57;;;29.10;91.80;29.40;96465.00;;;;5036288;28;20617;-69
2021/07/30 09:09:55;;;;;;;5.63;4.50;;;29.20;92.00;29.80;96467.00;;;;5027264;28;20211;-68
2021/07/30 09:12:43;;;;;;;7.15;5.03;;;29.40;91.60;29.80;96457.00;;;;5042742;28;20221;-69
2021/07/30 09:15:32;;;;;;;4.95;4.45;;;29.50;90.60;30.20;96458.00;;;;5046410;28;20260;-68
2021/07/30 09:18:32;;;;;;;5.78;5.28;;;29.70;90.40;30.00;96450.00;;;;5035893;28;20234;-69
2021/07/30 09:21:26;;;;;;;5.85;5.28;;;29.80;87.00;29.80;96443.00;;;;5034252;28;20705;-68
2021/07/30 09:24:19;;;;;;;6.30;5.10;;;29.80;86.80;30.20;96440.00;;;;5046522;28;20254;-68
2021/07/30 09:27:09;;;;;;;5.90;5.18;;;29.90;87.00;30.50;96443.00;;;;5031238;28;20241;-67
2021/07/30 09:30:13;;;;;;;6.63;5.13;;;30.00;87.50;30.10;96433.00;;;;5032942;28;20261;-68
2021/07/30 09:33:03;;;;;;;6.43;5.72;;;30.00;83.10;30.60;96427.00;;;;5026539;28;20698;-69
2021/07/30 09:36:01;;;;;;;6.60;4.63;;;30.10;81.20;30.60;96435.00;;;;5033277;28;20208;-68
2021/07/30 09:39:01;;;;;;;7.88;5.75;;;30.30;80.10;29.80;96437.00;;;;5046598;28;20254;-69
2021/07/30 09:42:04;;;;;;;7.18;5.45;;;30.30;75.00;30.30;96434.00;;;;5030105;28;20207;-70
2021/07/30 09:44:56;;;;;;;6.97;5.60;;;30.20;78.20;30.90;96431.00;;;;5025050;28;20213;-71
2021/07/30 09:47:48;;;;;;;5.80;5.15;;;30.40;78.60;31.30;96434.00;;;;5038008;28;20235;-70
2021/07/30 09:50:38;;;;;;;6.10;5.43;;;30.60;78.20;31.50;96421.00;;;;5034351;28;20433;-71
2021/07/30 09:53:28;;;;;;;10.90;6.18;;;30.80;77.80;31.60;96427.00;;;;5045207;28;20200;-70
2021/07/30 09:56:17;;;;;;;6.57;5.18;;;31.10;78.30;31.90;96421.00;;;;5045042;28;20210;-70
2021/07/30 09:59:07;;;;;;;8.38;4.75;;;31.10;76.90;30.30;96426.00;;;;5045609;28;20257;-71
2021/07/30 10:01:57;;;;;;;7.75;5.05;;;31.40;70.60;31.00;96414.00;;;;5045414;28;20206;-71
2021/07/30 10:04:49;;;;;;;6.50;5.82;;;31.30;72.30;31.70;96413.00;;;;5039820;28;20210;-71
2021/07/30 10:07:40;;;;;;;6.90;5.03;;;31.30;73.10;32.10;96402.00;;;;5045643;28;20244;-71
2021/07/30 10:10:31;;;;;;;6.70;5.50;;;31.50;73.50;31.70;96396.00;;;;5050268;28;20724;-71
2021/07/30 10:13:25;;;;;;;7.72;5.32;;;31.50;71.40;32.30;96396.00;;;;5044030;28;20208;-71
2021/07/30 10:16:16;;;;;;;9.07;5.47;;;31.60;73.60;32.40;96396.00;;;;5046997;28;20205;-71
2021/07/30 10:19:07;;;;;;;6.32;5.50;;;31.90;71.00;32.20;96384.00;;;;5049593;28;20207;-71
2021/07/30 10:21:59;;;;;;;5.90;5.40;;;32.00;68.40;32.20;96384.00;;;;5050299;28;20203;-71
2021/07/30 10:24:57;;;;;;;7.90;5.20;;;32.00;69.80;32.40;96389.00;;;;5049741;28;20222;-71
2021/07/30 10:27:47;;;;;;;7.38;5.80;;;32.10;68.30;31.20;96371.00;;;;5049809;28;20230;-70
2021/07/30 10:30:52;;;;;;;5.70;5.18;;;32.10;65.50;31.90;96374.00;;;;5047907;28;20705;-70
2021/07/30 10:33:50;;;;;;;8.57;5.43;;;31.90;67.50;32.30;96373.00;;;;5029121;28;20212;-70
2021/07/30 10:36:39;;;;;;;5.40;4.85;;;32.00;66.20;32.80;96366.00;;;;5041288;28;20704;-70
2021/07/30 10:39:28;;;;;;;8.82;5.20;;;32.10;66.40;32.90;96365.00;;;;5038883;28;20207;-70
2021/07/30 10:42:17;;;;;;;6.00;5.18;;;32.30;66.60;32.10;96360.00;;;;5032453;28;20692;-70
2021/07/30 10:45:22;;;;;;;8.50;5.57;;;32.50;63.60;31.50;96359.00;;;;5031167;28;20204;-69
2021/07/30 10:48:35;;;;;;;6.90;5.05;;;32.20;63.10;31.70;96358.00;;;;5049608;28;20234;-70
2021/07/30 10:51:27;;;;;;;6.97;5.75;;;31.80;65.40;32.90;96365.00;;;;5049762;28;20555;-70
2021/07/30 10:54:16;;;;;;;6.57;5.43;;;32.00;66.90;33.40;96347.00;;;;5044897;28;20196;-70
2021/07/30 10:57:05;;;;;;;6.28;5.32;;;32.40;65.90;33.30;96349.00;;;;5036728;28;20582;-70
2021/07/30 11:00:05;;;;;;;5.65;5.05;;;32.80;64.70;32.80;96390.00;;;;5036557;28;20221;-70
2021/07/30 11:03:07;;;;;;;5.43;4.85;;;32.70;62.70;32.40;96349.00;;;;5038481;28;20211;-69
2021/07/30 11:06:11;;;;;;;5.32;4.82;;;32.40;62.30;32.90;96372.00;;;;5037843;28;20203;-71
2021/07/30 11:09:16;;;;;;;5.18;4.50;;;32.50;62.90;33.10;96355.00;;;;5044855;28;20245;-70
2021/07/30 11:12:12;;;;;;;8.02;5.10;;;32.60;63.20;33.50;96343.00;;;;5038531;28;20204;-69
2021/07/30 11:15:09;;;;;;;5.47;4.78;;;33.00;60.20;34.30;96330.00;;;;5029809;28;20210;-71
2021/07/30 11:18:01;;;;;;;6.47;4.68;;;33.20;61.10;32.60;96320.00;;;;5033122;28;20710;-69
2021/07/30 11:20:59;;;;;;;6.35;4.55;;;33.40;58.00;33.80;96379.00;;;;5045800;28;20209;-69
2021/07/30 11:23:48;;;;;;;5.50;4.88;;;33.40;59.40;33.00;96381.00;;;;5041960;28;20598;-69
2021/07/30 11:26:39;;;;;;;5.93;5.35;;;33.20;58.50;32.70;96365.00;;;;5048951;28;20228;-71
2021/07/30 11:29:43;;;;;;;6.03;4.47;;;33.00;57.90;33.10;96299.00;;;;5040225;28;20349;-70
2021/07/30 11:32:33;;;;;;;6.43;5.00;;;33.20;58.00;32.40;96344.00;;;;5047714;28;20224;-69
2021/07/30 11:35:22;;;;;;;4.82;4.30;;;33.30;55.50;31.90;96356.00;;;;5033342;28;20294;-69
2021/07/30 11:38:12;;;;;;;7.18;4.20;;;32.70;55.90;32.40;96335.00;;;;5041678;28;20219;-69
2021/07/30 11:41:08;;;;;;;5.50;3.88;;;32.50;56.80;33.90;96351.00;;;;5049220;28;20211;-69
2021/07/30 11:44:00;;;;;;;4.97;4.18;;;32.80;56.40;33.20;96340.00;;;;5043006;28;20201;-71
2021/07/30 11:46:58;;;;;;;6.35;4.82;;;32.90;57.10;34.30;96351.00;;;;5044528;28;20726;-70
2021/07/30 11:49:49;;;;;;;7.15;4.70;;;33.20;57.00;33.80;96343.00;;;;5046938;28;20196;-71
2021/07/30 11:52:40;;;;;;;4.95;4.50;;;33.30;57.50;33.30;96346.00;;;;5027768;28;20660;-71
2021/07/30 11:55:30;;;;;;;7.07;5.32;;;33.30;56.00;34.60;96289.00;;;;5045981;28;20219;-69
2021/07/30 11:58:19;;;;;;;5.93;5.10;;;33.60;56.90;32.70;96336.00;;;;5048396;28;20239;-71
2021/07/30 12:01:11;;;;;;;5.22;4.13;;;33.70;54.30;33.50;96336.00;;;;5047480;28;20212;-71
2021/07/30 12:04:08;;;;;;;4.88;4.38;;;33.50;55.30;33.50;96314.00;;;;5033724;28;20595;-71
2021/07/30 12:07:02;;;;;;;5.50;4.88;;;33.40;55.40;34.40;96259.00;;;;5036110;28;20235;-70
2021/07/30 12:09:55;;;;;;;8.63;4.43;;;33.60;55.70;35.20;96337.00;;;;5034059;28;20214;-71
2021/07/30 12:12:45;;;;;;;5.45;4.95;;;34.00;55.30;34.00;96339.00;;;;5047167;28;20242;-71
2021/07/30 12:15:35;;;;;;;4.95;4.38;;;33.90;54.70;33.40;96339.00;;;;5047165;28;20219;-71
2021/07/30 12:18:23;;;;;;;6.03;5.05;;;33.70;55.10;32.90;96339.00;;;;5047891;28;20235;-71
2021/07/30 12:21:12;;;;;;;5.30;4.22;;;33.40;55.40;34.30;96282.00;;;;5046576;28;20672;-71
2021/07/30 12:24:05;;;;;;;5.15;4.65;;;33.50;55.80;34.30;96261.00;;;;5045972;28;20204;-70
2021/07/30 12:26:55;;;;;;;7.40;5.13;;;33.60;55.90;34.20;96308.00;;;;5047489;28;20250;-70
2021/07/30 12:29:47;;;;;;;6.88;5.05;;;33.80;54.00;34.90;96261.00;;;;5036117;28;20208;-70
2021/07/30 12:32:41;;;;;;;7.25;5.28;;;34.00;54.90;34.60;96312.00;;;;5047540;28;20684;-71
2021/07/30 12:35:34;;;;;;;6.78;5.10;;;34.10;56.10;34.70;96239.00;;;;5047454;28;20223;-71
2021/07/30 12:38:22;;;;;;;5.13;4.65;;;34.20;56.20;34.00;96303.00;;;;5047790;28;20243;-71